Time;durP1;ratioP1;P1;durP2;ratioP2;P2;SDS_P1;SDS_P2;PMS_P1;PMS_P2;Temp;Humidity;BMP_temperature;BMP_pressure;BME280_temperature;BME280_humidity;BME280_pressure;Samples;Min_cycle;Max_cycle;Signal;HPM_P1;HPM_P2
2021/06/13 00:00:14;;;;;;;12.50;5.25;;;12.70;99.90;;;;;;5125210;28;20036;-89
2021/06/13 00:02:44;;;;;;;13.65;5.55;;;12.60;99.90;;;;;;5108653;28;20047;-89
2021/06/13 00:05:12;;;;;;;14.02;5.35;;;12.60;99.90;;;;;;5109971;28;20048;-89
2021/06/13 00:07:40;;;;;;;12.68;6.03;;;12.60;99.90;;;;;;5108783;28;20036;-89
2021/06/13 00:10:08;;;;;;;11.15;5.22;;;12.50;99.90;;;;;;5112814;28;20033;-89
2021/06/13 00:12:35;;;;;;;14.35;5.97;;;12.50;99.90;;;;;;5091901;28;20048;-89
2021/06/13 00:15:05;;;;;;;15.23;5.82;;;12.50;99.90;;;;;;5092469;28;20044;-90
2021/06/13 00:17:31;;;;;;;12.52;5.80;;;12.50;99.90;;;;;;5075608;28;20053;-90
2021/06/13 00:19:58;;;;;;;14.02;6.28;;;12.40;99.90;;;;;;5076375;28;20040;-90
2021/06/13 00:22:25;;;;;;;13.60;5.80;;;12.40;99.90;;;;;;5092532;28;20039;-90
2021/06/13 00:24:52;;;;;;;15.65;5.90;;;12.30;99.90;;;;;;5059094;28;20045;-90
2021/06/13 00:27:19;;;;;;;12.25;5.72;;;12.30;99.90;;;;;;5109257;28;20037;-91
2021/06/13 00:29:45;;;;;;;18.50;5.65;;;12.30;99.90;;;;;;5091904;28;20032;-91
2021/06/13 00:32:12;;;;;;;14.82;5.45;;;12.30;99.90;;;;;;5108744;28;20036;-91
2021/06/13 00:34:40;;;;;;;14.38;5.43;;;12.20;99.90;;;;;;5074447;28;20492;-90
2021/06/13 00:37:07;;;;;;;15.75;6.55;;;12.20;99.90;;;;;;5108907;28;20380;-90
2021/06/13 00:39:33;;;;;;;14.73;6.13;;;12.10;99.90;;;;;;5092145;28;20047;-91
2021/06/13 00:42:01;;;;;;;12.88;5.70;;;12.10;99.90;;;;;;5075189;28;20041;-91
2021/06/13 00:44:28;;;;;;;15.05;6.05;;;12.10;99.90;;;;;;5075492;28;20107;-90
2021/06/13 00:46:55;;;;;;;15.57;5.88;;;12.10;99.90;;;;;;5074896;28;20071;-91
2021/06/13 00:49:22;;;;;;;15.80;6.38;;;12.10;99.90;;;;;;5092232;28;20044;-91
2021/06/13 00:51:51;;;;;;;13.27;6.60;;;12.10;99.90;;;;;;5108673;28;20032;-91
2021/06/13 00:54:18;;;;;;;19.30;6.07;;;12.10;99.90;;;;;;5108690;28;20064;-91
2021/06/13 00:56:45;;;;;;;17.58;6.93;;;12.00;99.90;;;;;;5108589;28;20028;-92
2021/06/13 00:59:12;;;;;;;17.67;7.18;;;11.90;99.90;;;;;;5092170;28;20408;-92
2021/06/13 01:01:38;;;;;;;15.02;7.07;;;12.00;99.90;;;;;;5075306;28;20045;-92
2021/06/13 01:04:07;;;;;;;18.42;6.60;;;11.90;99.90;;;;;;5075532;28;20044;-92
2021/06/13 01:07:05;;;;;;;15.55;6.03;;;11.90;99.90;;;;;;5092306;28;20044;-92
2021/06/13 01:09:38;;;;;;;16.45;6.30;;;11.90;99.90;;;;;;5108148;28;20044;-93
2021/06/13 01:12:10;;;;;;;18.70;6.00;;;11.90;99.90;;;;;;5108400;28;20042;-93
2021/06/13 01:15:09;;;;;;;14.05;6.05;;;11.90;99.90;;;;;;5108105;28;20032;-92
2021/06/13 01:17:51;;;;;;;19.63;7.07;;;11.90;99.90;;;;;;5091574;28;20056;-92
2021/06/13 01:20:32;;;;;;;14.80;7.15;;;11.80;99.90;;;;;;5091448;28;20048;-92
2021/06/13 01:23:35;;;;;;;13.60;6.30;;;11.70;99.90;;;;;;5090904;28;20051;-92
2021/06/13 01:26:14;;;;;;;16.30;6.88;;;11.60;99.90;;;;;;5090783;28;20044;-91
2021/06/13 01:29:02;;;;;;;11.32;6.18;;;11.50;99.90;;;;;;5091226;28;20048;-91
2021/06/13 01:31:36;;;;;;;14.57;6.72;;;11.50;99.90;;;;;;5091875;28;20083;-91
2021/06/13 01:34:07;;;;;;;12.45;6.28;;;11.50;99.90;;;;;;5090867;28;20041;-92
2021/06/13 01:36:36;;;;;;;13.30;6.22;;;11.50;99.90;;;;;;5102123;28;20056;-92
2021/06/13 01:39:11;;;;;;;13.35;6.43;;;11.50;99.90;;;;;;5096068;28;20045;-93
2021/06/13 01:41:39;;;;;;;14.75;6.15;;;11.50;99.90;;;;;;5105072;28;20048;-91
2021/06/13 01:44:07;;;;;;;15.18;6.75;;;11.40;99.90;;;;;;5071114;28;20054;-92
2021/06/13 01:46:37;;;;;;;16.38;6.63;;;11.40;99.90;;;;;;5121602;28;20063;-91
2021/06/13 01:49:05;;;;;;;14.75;6.78;;;11.40;99.90;;;;;;5104453;28;20053;-91
2021/06/13 01:51:32;;;;;;;17.38;7.53;;;11.30;99.90;;;;;;5071186;28;20473;-91
2021/06/13 01:54:00;;;;;;;14.23;7.05;;;11.30;99.90;;;;;;5070799;28;20472;-92
2021/06/13 01:56:28;;;;;;;17.33;7.18;;;11.20;99.90;;;;;;5104354;28;20045;-91
2021/06/13 01:58:58;;;;;;;14.25;6.82;;;11.20;99.90;;;;;;5120346;28;20040;-91
2021/06/13 02:01:28;;;;;;;14.63;6.63;;;11.20;99.90;;;;;;5104585;28;20392;-90
2021/06/13 02:03:58;;;;;;;15.02;6.88;;;11.10;99.90;;;;;;5103512;28;20045;-89
2021/06/13 02:06:32;;;;;;;16.20;7.03;;;11.10;99.90;;;;;;5104519;28;20053;-91
2021/06/13 02:09:00;;;;;;;20.23;7.75;;;11.10;99.90;;;;;;5103922;28;20112;-91
2021/06/13 02:11:30;;;;;;;14.38;6.63;;;11.10;99.90;;;;;;5071485;28;20485;-91
2021/06/13 02:14:00;;;;;;;16.80;6.90;;;11.10;99.90;;;;;;5120658;28;20106;-93
2021/06/13 02:16:28;;;;;;;17.13;6.55;;;11.10;99.90;;;;;;5103037;28;20136;-92
2021/06/13 02:18:57;;;;;;;18.52;6.60;;;11.00;99.90;;;;;;5103768;28;20044;-92
2021/06/13 02:21:25;;;;;;;14.15;7.03;;;11.00;99.90;;;;;;5104569;28;20393;-92
2021/06/13 02:23:55;;;;;;;17.13;6.75;;;11.00;99.90;;;;;;5122929;28;20044;-91
2021/06/13 02:26:23;;;;;;;14.95;6.60;;;11.00;99.90;;;;;;5124829;28;20037;-91
2021/06/13 02:28:54;;;;;;;15.15;6.85;;;11.00;99.90;;;;;;5058004;28;20131;-90
2021/06/13 02:31:25;;;;;;;17.75;7.72;;;11.00;99.90;;;;;;5108063;28;20620;-91
2021/06/13 02:33:54;;;;;;;14.85;7.00;;;11.10;99.90;;;;;;5107936;28;20045;-93
2021/06/13 02:36:23;;;;;;;16.45;7.32;;;11.10;99.90;;;;;;5107447;28;20056;-90
2021/06/13 02:38:54;;;;;;;15.75;6.82;;;11.10;99.90;;;;;;5107064;28;20045;-90
2021/06/13 02:41:22;;;;;;;16.63;7.00;;;11.10;99.90;;;;;;5074559;28;20435;-91
2021/06/13 02:43:49;;;;;;;18.00;7.57;;;11.10;99.90;;;;;;5089746;28;20492;-91
2021/06/13 02:46:16;;;;;;;15.68;7.10;;;11.00;99.90;;;;;;5107049;28;20048;-92
2021/06/13 02:48:43;;;;;;;15.38;7.43;;;11.00;99.90;;;;;;5106691;28;20512;-90
2021/06/13 02:51:12;;;;;;;18.23;7.35;;;10.90;99.90;;;;;;5056890;28;20045;-90
2021/06/13 02:53:48;;;;;;;20.35;7.45;;;11.00;99.90;;;;;;5123883;28;20033;-91
2021/06/13 02:56:40;;;;;;;16.60;6.97;;;10.90;99.90;;;;;;5106751;28;20469;-91
2021/06/13 02:59:10;;;;;;;20.25;7.55;;;10.90;99.90;;;;;;5106783;28;20049;-91
2021/06/13 03:01:42;;;;;;;16.88;7.85;;;10.80;99.90;;;;;;5106617;28;20041;-91
2021/06/13 03:04:10;;;;;;;16.27;7.50;;;10.70;99.90;;;;;;5106262;28;20059;-91
2021/06/13 03:06:38;;;;;;;16.38;7.43;;;10.70;99.90;;;;;;5122545;28;20543;-92
2021/06/13 03:09:05;;;;;;;17.38;7.65;;;10.80;99.90;;;;;;5073361;28;20065;-92
2021/06/13 03:11:32;;;;;;;17.13;7.72;;;10.80;99.90;;;;;;5074200;28;20512;-91
2021/06/13 03:14:01;;;;;;;15.18;7.07;;;10.80;99.90;;;;;;5073770;28;20052;-92
2021/06/13 03:16:30;;;;;;;20.95;8.35;;;10.80;99.90;;;;;;5105703;28;20107;-92
2021/06/13 03:18:58;;;;;;;17.80;8.18;;;10.80;99.90;;;;;;5106217;28;20075;-91
2021/06/13 03:21:27;;;;;;;17.65;8.05;;;10.80;99.90;;;;;;5107073;28;20508;-92
2021/06/13 03:23:56;;;;;;;18.70;7.50;;;10.80;99.90;;;;;;5106831;28;20469;-91
2021/06/13 03:26:24;;;;;;;15.38;7.50;;;10.80;99.90;;;;;;5123786;28;20075;-91
2021/06/13 03:28:54;;;;;;;17.00;7.35;;;10.70;99.90;;;;;;5123395;28;20037;-91
2021/06/13 03:31:21;;;;;;;16.80;7.72;;;10.70;99.90;;;;;;5107120;28;20045;-91
2021/06/13 03:33:50;;;;;;;16.02;7.30;;;10.70;99.90;;;;;;5089853;28;20033;-91
2021/06/13 03:36:17;;;;;;;17.23;7.57;;;10.70;99.90;;;;;;5122730;28;20465;-92
2021/06/13 03:38:46;;;;;;;17.42;7.90;;;10.70;99.90;;;;;;5073279;28;20037;-91
2021/06/13 03:41:14;;;;;;;15.00;7.72;;;10.70;99.90;;;;;;5122459;28;20064;-90
2021/06/13 03:43:42;;;;;;;21.58;8.23;;;10.60;99.90;;;;;;5106071;28;20070;-91
2021/06/13 03:46:10;;;;;;;14.88;7.15;;;10.60;99.90;;;;;;5122669;28;20033;-91
2021/06/13 03:48:37;;;;;;;16.13;7.57;;;10.60;99.90;;;;;;5106037;28;20072;-90
2021/06/13 03:51:06;;;;;;;19.38;7.93;;;10.60;99.90;;;;;;5122505;28;20032;-90
2021/06/13 03:53:33;;;;;;;17.00;8.10;;;10.60;99.90;;;;;;5122950;28;20427;-90
2021/06/13 03:56:05;;;;;;;17.00;7.80;;;10.60;99.90;;;;;;5072247;28;20078;-90
2021/06/13 03:58:32;;;;;;;19.10;8.23;;;10.60;99.90;;;;;;5122828;28;20479;-91
2021/06/13 04:01:00;;;;;;;21.25;7.82;;;10.50;99.90;;;;;;5072344;28;20041;-90
2021/06/13 04:03:28;;;;;;;24.55;8.88;;;10.50;99.90;;;;;;5121938;28;20061;-90
2021/06/13 04:05:56;;;;;;;18.15;7.95;;;10.50;99.90;;;;;;5105805;28;20056;-90
2021/06/13 04:08:24;;;;;;;16.63;7.88;;;10.60;99.90;;;;;;5072677;28;20040;-89
2021/06/13 04:10:52;;;;;;;17.92;7.80;;;10.70;99.90;;;;;;5105818;28;20053;-90
2021/06/13 04:13:20;;;;;;;17.30;7.65;;;10.70;99.90;;;;;;5105445;28;20045;-89
2021/06/13 04:15:47;;;;;;;20.83;8.20;;;10.80;99.90;;;;;;5105492;28;20060;-90
2021/06/13 04:18:15;;;;;;;19.73;7.60;;;10.80;99.90;;;;;;5104822;28;20453;-89
2021/06/13 04:20:44;;;;;;;16.17;7.93;;;10.80;99.90;;;;;;5105366;28;20129;-90
2021/06/13 04:23:14;;;;;;;17.13;7.25;;;10.90;99.90;;;;;;5121720;28;20068;-89
2021/06/13 04:25:43;;;;;;;16.33;7.30;;;10.90;99.90;;;;;;5122063;28;20048;-89
2021/06/13 04:28:15;;;;;;;18.25;8.00;;;10.90;99.90;;;;;;5121573;28;20039;-90
2021/06/13 04:30:58;;;;;;;18.30;7.38;;;10.80;99.90;;;;;;5122624;28;20041;-89
2021/06/13 04:33:25;;;;;;;16.98;7.47;;;10.90;99.90;;;;;;5122013;28;20033;-89
2021/06/13 04:35:51;;;;;;;15.88;7.35;;;10.90;99.90;;;;;;5055412;28;20041;-90
2021/06/13 04:38:18;;;;;;;19.80;7.93;;;11.00;99.90;;;;;;5071420;28;20060;-89
2021/06/13 04:40:45;;;;;;;17.77;7.43;;;11.10;99.90;;;;;;5071571;28;20037;-90
2021/06/13 04:43:13;;;;;;;19.65;7.53;;;11.20;99.90;;;;;;5087930;28;20120;-90
2021/06/13 04:45:40;;;;;;;15.60;7.28;;;11.20;99.90;;;;;;5054832;28;20083;-89
2021/06/13 04:48:07;;;;;;;20.02;7.70;;;11.20;99.90;;;;;;5071180;28;20090;-89
2021/06/13 04:50:35;;;;;;;15.88;7.53;;;11.30;99.90;;;;;;5072026;28;20041;-90
2021/06/13 04:53:02;;;;;;;15.05;7.25;;;11.40;99.90;;;;;;5103868;28;20044;-90
2021/06/13 04:55:40;;;;;;;16.15;6.95;;;11.40;99.90;;;;;;5104954;28;20048;-89
2021/06/13 04:58:27;;;;;;;18.73;7.82;;;11.40;99.90;;;;;;5071114;28;20048;-90
2021/06/13 05:00:54;;;;;;;18.23;6.95;;;11.50;99.90;;;;;;5104591;28;20045;-89
2021/06/13 05:03:21;;;;;;;18.85;6.80;;;11.60;99.90;;;;;;5070633;28;20674;-90
2021/06/13 05:05:48;;;;;;;18.25;7.45;;;11.60;99.90;;;;;;5071755;28;20052;-89
2021/06/13 05:08:15;;;;;;;17.38;7.28;;;11.60;99.90;;;;;;5071363;28;20401;-90
2021/06/13 05:10:42;;;;;;;19.98;6.82;;;11.70;99.90;;;;;;5071528;28;20040;-90
2021/06/13 05:13:17;;;;;;;16.40;6.50;;;11.70;99.90;;;;;;5070756;28;20235;-89
2021/06/13 05:15:45;;;;;;;21.42;6.82;;;11.80;99.90;;;;;;5104555;28;20052;-89
2021/06/13 05:18:12;;;;;;;17.30;7.13;;;11.80;99.90;;;;;;5111175;28;20052;-90
2021/06/13 05:20:39;;;;;;;14.80;6.88;;;11.90;99.90;;;;;;5124562;28;20370;-89
2021/06/13 05:23:06;;;;;;;16.15;6.88;;;11.90;99.90;;;;;;5091347;28;20094;-90
2021/06/13 05:25:35;;;;;;;18.05;6.63;;;12.00;99.90;;;;;;5108328;28;20060;-88
2021/06/13 05:28:05;;;;;;;16.80;7.05;;;12.20;99.90;;;;;;5108045;28;20047;-89
2021/06/13 05:30:33;;;;;;;15.60;6.65;;;12.20;99.90;;;;;;5108107;28;20036;-89
2021/06/13 05:33:00;;;;;;;14.40;6.57;;;12.30;99.90;;;;;;5107721;28;20067;-89
2021/06/13 05:35:27;;;;;;;17.23;7.07;;;12.40;99.90;;;;;;5107314;28;20044;-88
2021/06/13 05:37:54;;;;;;;21.52;6.68;;;12.50;99.90;;;;;;5141720;28;20040;-88
2021/06/13 05:40:23;;;;;;;17.88;6.35;;;12.60;99.90;;;;;;5090324;28;20051;-89
2021/06/13 05:42:53;;;;;;;16.00;6.70;;;12.60;99.90;;;;;;5107479;28;20040;-89
2021/06/13 05:45:23;;;;;;;14.02;6.32;;;12.70;99.90;;;;;;5123809;28;20071;-89
2021/06/13 05:47:50;;;;;;;13.43;5.97;;;12.70;99.90;;;;;;5090672;28;20072;-88
2021/06/13 05:50:17;;;;;;;16.95;6.40;;;12.80;99.90;;;;;;5107165;28;20067;-89
2021/06/13 05:52:45;;;;;;;20.08;6.50;;;12.90;99.90;;;;;;5107790;28;20032;-89
2021/06/13 05:55:13;;;;;;;16.25;6.40;;;13.00;99.90;;;;;;5107281;28;20062;-89
2021/06/13 05:57:40;;;;;;;13.90;5.40;;;13.10;99.90;;;;;;5125242;28;20104;-89
2021/06/13 06:00:09;;;;;;;14.85;5.47;;;13.10;99.90;;;;;;5111430;28;20044;-89
2021/06/13 06:02:36;;;;;;;16.08;5.45;;;13.30;99.90;;;;;;5111791;28;20033;-88
2021/06/13 06:05:05;;;;;;;12.77;5.90;;;13.30;99.90;;;;;;5126739;28;20037;-88
2021/06/13 06:07:32;;;;;;;16.35;5.85;;;13.40;99.90;;;;;;5068616;28;20044;-89
2021/06/13 06:09:59;;;;;;;11.75;5.43;;;13.50;99.90;;;;;;5094079;28;20546;-89
2021/06/13 06:12:26;;;;;;;13.07;5.28;;;13.60;99.90;;;;;;5058388;28;20049;-88
2021/06/13 06:14:52;;;;;;;9.80;4.32;;;13.70;99.90;;;;;;5092182;28;20140;-90
2021/06/13 06:17:20;;;;;;;14.02;5.03;;;13.80;99.90;;;;;;5076624;28;20412;-89
2021/06/13 06:19:47;;;;;;;10.85;4.53;;;13.80;99.90;;;;;;5093061;28;20473;-89
2021/06/13 06:22:14;;;;;;;10.43;5.03;;;13.90;99.90;;;;;;5094497;28;20044;-90
2021/06/13 06:24:41;;;;;;;11.00;4.30;;;13.90;99.90;;;;;;5094580;28;20055;-89
2021/06/13 06:27:08;;;;;;;11.68;4.28;;;14.00;99.90;;;;;;5110371;28;20040;-87
2021/06/13 06:29:35;;;;;;;9.93;4.10;;;14.10;99.90;;;;;;5110660;28;20078;-90
2021/06/13 06:32:03;;;;;;;15.88;4.22;;;14.20;99.90;;;;;;5094405;28;20530;-88
2021/06/13 06:34:29;;;;;;;13.80;3.97;;;14.30;99.90;;;;;;5110999;28;20033;-89
2021/06/13 06:36:56;;;;;;;11.27;3.38;;;14.40;99.90;;;;;;5121203;28;20130;-91
2021/06/13 06:39:23;;;;;;;11.10;4.00;;;14.50;99.90;;;;;;5092578;28;20033;-90
2021/06/13 06:41:50;;;;;;;10.60;4.03;;;14.50;99.90;;;;;;5092547;28;20094;-93
2021/06/13 06:44:17;;;;;;;14.85;4.50;;;14.60;99.90;;;;;;5091288;28;20032;-91
2021/06/13 06:46:45;;;;;;;9.35;3.63;;;14.70;99.90;;;;;;5074190;28;20136;-91
2021/06/13 06:49:15;;;;;;;10.75;4.15;;;14.70;99.90;;;;;;5083651;28;20052;-90
2021/06/13 06:51:42;;;;;;;11.80;4.50;;;14.90;99.90;;;;;;5096777;28;20040;-92
2021/06/13 06:54:09;;;;;;;10.75;4.63;;;14.90;99.90;;;;;;5097352;28;20234;-92
2021/06/13 06:56:36;;;;;;;15.02;4.43;;;15.00;99.90;;;;;;5076423;28;20075;-89
2021/06/13 06:59:03;;;;;;;11.02;3.85;;;15.00;99.90;;;;;;5117450;28;20090;-92
2021/06/13 07:01:30;;;;;;;7.78;3.63;;;15.10;99.90;;;;;;5101503;28;20135;-88
2021/06/13 07:03:56;;;;;;;7.97;3.42;;;15.10;99.90;;;;;;5093504;28;20115;-90
2021/06/13 07:06:23;;;;;;;10.60;3.83;;;15.20;99.90;;;;;;5094078;28;20086;-94
2021/06/13 07:08:50;;;;;;;12.07;3.70;;;15.30;99.90;;;;;;5109190;28;20037;-94
2021/06/13 07:11:17;;;;;;;9.25;3.47;;;15.30;99.90;;;;;;5124225;28;20037;-91
2021/06/13 07:13:48;;;;;;;8.70;3.38;;;15.40;99.90;;;;;;5096392;28;20039;-96
2021/06/13 07:16:15;;;;;;;7.50;3.40;;;15.50;99.90;;;;;;5128500;28;20028;-89
2021/06/13 07:18:42;;;;;;;8.88;3.50;;;15.60;99.90;;;;;;5127470;28;20177;-93
2021/06/13 07:21:09;;;;;;;9.70;3.65;;;15.70;99.90;;;;;;5109995;28;20028;-93
2021/06/13 07:23:36;;;;;;;7.22;2.80;;;15.70;99.90;;;;;;5140412;28;20028;-91
2021/06/13 07:26:03;;;;;;;8.30;3.17;;;15.70;99.90;;;;;;5109890;28;20043;-94
2021/06/13 07:28:32;;;;;;;7.78;3.17;;;15.80;99.90;;;;;;5159339;27;20040;-83
2021/06/13 07:31:00;;;;;;;8.73;3.20;;;16.00;99.90;;;;;;5153235;27;20429;-80
2021/06/13 07:33:28;;;;;;;8.52;3.50;;;15.90;99.90;;;;;;5089356;28;20045;-84
2021/06/13 07:35:56;;;;;;;9.55;3.33;;;16.00;99.90;;;;;;5107909;28;20040;-83
2021/06/13 07:38:23;;;;;;;8.52;3.17;;;16.10;99.90;;;;;;5107237;28;20477;-85
2021/06/13 07:40:50;;;;;;;10.52;3.47;;;16.10;99.90;;;;;;5074858;28;20048;-81
2021/06/13 07:43:17;;;;;;;10.60;4.03;;;16.20;99.90;;;;;;5108535;28;20037;-84
2021/06/13 07:45:56;;;;;;;10.30;4.05;;;16.30;99.90;;;;;;5090876;28;20029;-84
2021/06/13 07:48:24;;;;;;;10.05;3.40;;;16.50;99.90;;;;;;5098285;28;20037;-84
2021/06/13 07:50:51;;;;;;;8.25;3.10;;;16.50;99.90;;;;;;5105089;28;20029;-86
2021/06/13 07:53:18;;;;;;;8.35;2.58;;;16.40;99.90;;;;;;5076023;28;20814;-82
2021/06/13 07:55:45;;;;;;;7.53;2.70;;;16.50;99.90;;;;;;5087669;28;20041;-85
2021/06/13 07:58:12;;;;;;;8.77;2.38;;;16.50;99.70;;;;;;5091811;28;20059;-83
2021/06/13 08:00:39;;;;;;;12.18;2.53;;;16.60;98.70;;;;;;5073412;28;20044;-85
2021/06/13 08:03:06;;;;;;;7.55;2.63;;;16.70;97.30;;;;;;5090476;28;20024;-85
2021/06/13 08:05:35;;;;;;;8.18;3.05;;;16.80;99.50;;;;;;5074199;28;20112;-88
2021/06/13 08:08:09;;;;;;;6.30;2.90;;;16.90;99.10;;;;;;5078471;28;20040;-93
2021/06/13 08:11:03;;;;;;;9.60;2.88;;;17.00;98.50;;;;;;5131068;27;20037;-93
2021/06/13 08:13:30;;;;;;;9.45;2.58;;;17.00;98.00;;;;;;5081977;28;20123;-90
2021/06/13 08:15:57;;;;;;;6.53;2.65;;;17.20;98.30;;;;;;5070221;28;20047;-95
2021/06/13 08:18:24;;;;;;;8.52;2.90;;;17.30;98.30;;;;;;5117303;28;20056;-95
2021/06/13 08:20:51;;;;;;;6.45;2.50;;;17.50;98.80;;;;;;5082939;28;20041;-95
2021/06/13 08:23:18;;;;;;;7.90;2.65;;;17.50;98.20;;;;;;5066597;28;20060;-90
2021/06/13 08:25:45;;;;;;;7.60;2.42;;;17.60;97.00;;;;;;5061495;28;20389;-88
2021/06/13 08:28:13;;;;;;;5.75;2.67;;;17.50;93.90;;;;;;5097116;28;20043;-96
2021/06/13 08:30:40;;;;;;;6.72;2.60;;;17.50;94.60;;;;;;5079179;28;20091;-92
2021/06/13 08:33:08;;;;;;;6.05;2.70;;;17.60;95.10;;;;;;5086513;28;20032;-91
2021/06/13 08:35:35;;;;;;;8.13;2.67;;;17.60;95.20;;;;;;5096426;28;20051;-95
2021/06/13 08:38:05;;;;;;;6.15;2.80;;;17.60;95.60;;;;;;5091091;28;20056;-96
2021/06/13 08:40:41;;;;;;;7.28;2.78;;;17.70;94.80;;;;;;5125890;28;20079;-93
2021/06/13 08:43:08;;;;;;;5.80;2.80;;;17.80;96.00;;;;;;5110400;28;20131;-93
2021/06/13 08:45:38;;;;;;;8.93;2.47;;;18.00;95.80;;;;;;5095054;28;20055;-94
2021/06/13 08:48:08;;;;;;;7.30;2.65;;;18.10;95.90;;;;;;5093953;28;20040;-90
2021/06/13 08:50:38;;;;;;;6.72;2.75;;;18.20;94.10;;;;;;5078712;28;20044;-90
2021/06/13 08:53:06;;;;;;;8.25;2.53;;;18.20;95.00;;;;;;5073275;28;20374;-95
2021/06/13 08:55:33;;;;;;;8.82;2.55;;;18.20;91.80;;;;;;5089948;28;20763;-91
2021/06/13 08:58:02;;;;;;;6.65;2.90;;;18.30;92.80;;;;;;5130511;28;20051;-96
2021/06/13 09:00:36;;;;;;;11.45;2.92;;;18.40;92.90;;;;;;5142539;28;20019;-95
2021/06/13 09:03:19;;;;;;;8.20;2.95;;;18.40;92.70;;;;;;5101827;28;20081;-94
2021/06/13 09:05:46;;;;;;;6.00;2.72;;;18.50;93.80;;;;;;5117659;28;20037;-92
2021/06/13 09:08:19;;;;;;;7.60;2.85;;;18.50;93.60;;;;;;5080876;28;20032;-96
2021/06/13 09:38:48;;;;;;;6.93;2.80;;;19.60;92.00;;;;;;5072287;28;20042;-96
2021/06/13 09:41:19;;;;;;;7.78;3.60;;;19.70;94.40;;;;;;5063847;28;20060;-95
2021/06/13 09:43:52;;;;;;;5.70;2.95;;;19.70;91.80;;;;;;5049589;28;20132;-96
2021/06/13 09:46:25;;;;;;;9.68;2.90;;;19.90;90.30;;;;;;5073631;28;20133;-94
2021/06/13 09:49:02;;;;;;;9.07;2.90;;;19.80;90.90;;;;;;5057743;28;20045;-95
2021/06/13 09:51:33;;;;;;;8.15;3.53;;;19.90;92.40;;;;;;5059286;28;20083;-92
2021/06/13 09:54:05;;;;;;;7.18;3.30;;;19.80;90.80;;;;;;5061295;28;20051;-90
2021/06/13 09:56:39;;;;;;;7.03;3.20;;;19.60;85.60;;;;;;5062020;28;20044;-89
2021/06/13 09:59:14;;;;;;;9.40;3.33;;;19.80;86.80;;;;;;5045783;28;20045;-93
2021/06/13 10:02:01;;;;;;;9.35;3.30;;;19.90;90.40;;;;;;5056473;28;20072;-93
2021/06/13 10:04:31;;;;;;;9.13;3.22;;;20.10;92.70;;;;;;5073288;28;20107;-89
2021/06/13 10:07:16;;;;;;;7.45;2.92;;;20.30;91.40;;;;;;5089618;28;20120;-95
2021/06/13 10:10:07;;;;;;;6.55;2.90;;;20.50;87.50;;;;;;5037888;28;20127;-96
2021/06/13 10:12:54;;;;;;;6.03;2.70;;;20.70;88.70;;;;;;5058258;28;20053;-93
2021/06/13 10:15:34;;;;;;;6.43;3.08;;;20.40;83.40;;;;;;5059904;28;20051;-93
2021/06/13 10:18:11;;;;;;;7.53;2.97;;;20.30;88.30;;;;;;5055232;28;20039;-96
2021/06/13 10:20:38;;;;;;;9.35;3.30;;;20.30;84.90;;;;;;5085920;28;20080;-96
2021/06/13 10:23:05;;;;;;;10.95;3.40;;;20.40;89.30;;;;;;5062625;28;20072;-93
2021/06/13 10:25:32;;;;;;;11.35;3.17;;;20.50;87.40;;;;;;5054920;28;20087;-91
2021/06/13 10:27:59;;;;;;;7.78;3.00;;;20.60;87.20;;;;;;5051912;28;20436;-89
2021/06/13 10:30:28;;;;;;;9.25;3.20;;;20.80;85.50;;;;;;5056956;28;20128;-94
2021/06/13 10:32:54;;;;;;;6.93;3.10;;;21.00;85.90;;;;;;5047207;28;20080;-92
2021/06/13 10:35:22;;;;;;;7.75;3.20;;;21.10;82.80;;;;;;5054142;28;20072;-87
2021/06/13 10:37:49;;;;;;;7.97;3.10;;;21.00;82.30;;;;;;5061266;28;20041;-82
2021/06/13 10:40:16;;;;;;;8.80;3.10;;;21.00;84.00;;;;;;5075388;28;20041;-91
2021/06/13 10:42:43;;;;;;;10.73;3.30;;;20.90;83.90;;;;;;5069091;28;20492;-90
2021/06/13 10:45:11;;;;;;;6.78;3.28;;;20.70;85.50;;;;;;5038492;28;20050;-87
2021/06/13 10:47:38;;;;;;;7.47;3.45;;;20.40;85.40;;;;;;5072835;28;20370;-88
2021/06/13 10:50:09;;;;;;;7.07;3.00;;;20.60;85.50;;;;;;5078530;28;20045;-81
2021/06/13 10:52:36;;;;;;;7.40;3.10;;;20.80;82.70;;;;;;5068560;28;20041;-85
2021/06/13 10:55:06;;;;;;;8.43;3.40;;;20.80;82.60;;;;;;5073485;28;20388;-80
2021/06/13 10:57:43;;;;;;;6.30;2.88;;;20.90;81.70;;;;;;5078962;28;20037;-84
2021/06/13 11:00:19;;;;;;;8.23;3.40;;;21.00;85.10;;;;;;5070176;28;20050;-82
2021/06/13 11:02:45;;;;;;;7.65;3.25;;;21.00;80.40;;;;;;5067627;28;20041;-89
2021/06/13 11:05:13;;;;;;;7.00;3.13;;;21.30;82.60;;;;;;5069094;28;20458;-83
2021/06/13 11:07:43;;;;;;;9.38;3.67;;;21.20;82.70;;;;;;5078870;28;20038;-85
2021/06/13 11:10:15;;;;;;;7.03;3.20;;;21.40;84.30;;;;;;5071927;28;20453;-81
2021/06/13 11:13:14;;;;;;;8.20;3.22;;;21.30;78.90;;;;;;5088915;28;20115;-84
2021/06/13 11:15:45;;;;;;;7.60;3.30;;;21.50;83.20;;;;;;5079742;28;20029;-93
2021/06/13 11:18:15;;;;;;;8.75;3.40;;;21.60;80.10;;;;;;5071608;28;20092;-83
2021/06/13 11:23:23;;;;;;;9.85;3.60;;;21.70;78.80;;;;;;5089609;28;20558;-81
2021/06/13 11:25:53;;;;;;;7.38;3.17;;;21.70;79.90;;;;;;5082600;28;20046;-86
2021/06/13 11:28:27;;;;;;;8.30;3.53;;;21.90;83.50;;;;;;5074195;28;20037;-88
2021/06/13 11:31:12;;;;;;;7.30;3.33;;;21.70;81.60;;;;;;5055661;28;20111;-90
2021/06/13 11:33:47;;;;;;;7.22;3.95;;;21.90;84.30;;;;;;5033244;28;20053;-90
2021/06/13 11:36:23;;;;;;;7.57;3.55;;;21.90;84.90;;;;;;5044671;28;20452;-93
2021/06/13 11:38:53;;;;;;;7.90;3.40;;;21.90;81.20;;;;;;5079539;28;20029;-95
2021/06/13 11:41:30;;;;;;;6.63;3.50;;;22.00;81.90;;;;;;5067819;28;20050;-90
2021/06/13 11:44:04;;;;;;;8.88;3.67;;;22.10;81.00;;;;;;5052099;28;20103;-88
2021/06/13 11:46:35;;;;;;;9.68;3.65;;;22.20;80.40;;;;;;5039672;28;20041;-92
2021/06/13 11:49:08;;;;;;;10.20;3.22;;;22.00;80.80;;;;;;5050355;28;20040;-93
2021/06/13 11:52:01;;;;;;;5.97;3.25;;;22.10;75.90;;;;;;5052914;28;20069;-93
2021/06/13 11:54:29;;;;;;;8.68;3.63;;;22.10;78.90;;;;;;5035641;28;20470;-93
2021/06/13 11:56:57;;;;;;;11.80;4.00;;;22.00;79.50;;;;;;5032452;28;20049;-93
2021/06/13 11:59:25;;;;;;;6.55;3.47;;;22.20;80.60;;;;;;5033660;28;20069;-88
2021/06/13 12:01:57;;;;;;;8.77;3.88;;;22.30;80.30;;;;;;5033203;28;20061;-92
2021/06/13 12:04:28;;;;;;;15.93;3.63;;;22.20;77.40;;;;;;5033292;28;20104;-91
2021/06/13 12:06:57;;;;;;;10.25;3.10;;;22.40;82.70;;;;;;5049168;28;20069;-90
2021/06/13 12:09:33;;;;;;;7.53;3.47;;;22.50;81.20;;;;;;5033323;28;20179;-95
2021/06/13 12:12:12;;;;;;;7.70;3.17;;;22.60;77.10;;;;;;5018864;28;20383;-96
2021/06/13 12:14:43;;;;;;;7.97;3.50;;;22.60;75.20;;;;;;5052587;28;20440;-95
2021/06/13 12:17:23;;;;;;;8.77;3.42;;;22.40;77.60;;;;;;5077080;28;20038;-94
2021/06/13 12:19:56;;;;;;;9.52;3.65;;;22.50;77.30;;;;;;5054524;28;20399;-93
2021/06/13 12:22:49;;;;;;;7.82;3.63;;;22.60;76.70;;;;;;5053379;28;20126;-93
2021/06/13 12:28:31;;;;;;;8.10;3.30;;;22.80;77.30;;;;;;5086036;28;20603;-88
2021/06/13 12:30:57;;;;;;;7.30;3.28;;;22.70;77.00;;;;;;5068428;28;20106;-90
2021/06/13 12:33:39;;;;;;;8.10;3.53;;;23.10;78.80;;;;;;5068580;28;20033;-95
2021/06/13 12:36:07;;;;;;;8.38;3.83;;;23.00;74.40;;;;;;5051830;28;20111;-91
2021/06/13 12:38:36;;;;;;;8.43;3.70;;;23.10;78.20;;;;;;5052736;28;20054;-91
2021/06/13 12:41:04;;;;;;;7.70;3.58;;;22.90;75.80;;;;;;5051846;28;20056;-92
2021/06/13 12:43:33;;;;;;;8.60;3.55;;;22.90;80.10;;;;;;5052930;28;20056;-93
2021/06/13 12:46:00;;;;;;;8.65;3.60;;;22.80;78.60;;;;;;5068481;28;20034;-93
2021/06/13 12:48:30;;;;;;;9.43;3.75;;;23.00;79.30;;;;;;5051776;28;20132;-92
2021/06/13 12:51:31;;;;;;;9.20;3.78;;;23.20;77.30;;;;;;5068615;28;20061;-92
2021/06/13 12:53:59;;;;;;;9.60;3.90;;;23.50;80.00;;;;;;5051050;28;20135;-93
2021/06/13 12:56:26;;;;;;;8.68;3.92;;;23.40;78.90;;;;;;5051074;28;20444;-83
2021/06/13 12:58:54;;;;;;;8.40;3.90;;;23.30;77.20;;;;;;5065882;28;20052;-81
2021/06/13 13:01:31;;;;;;;8.60;3.80;;;23.30;76.50;;;;;;5049535;28;20402;-91
2021/06/13 13:04:00;;;;;;;10.15;3.88;;;23.40;76.60;;;;;;5015769;28;20050;-93
2021/06/13 13:06:27;;;;;;;9.73;3.97;;;23.40;78.40;;;;;;5068285;28;20038;-93
2021/06/13 13:08:54;;;;;;;8.52;3.95;;;23.30;76.50;;;;;;5051706;28;20053;-92
2021/06/13 13:11:28;;;;;;;8.65;3.63;;;23.20;75.70;;;;;;5035469;28;20386;-91
2021/06/13 13:14:02;;;;;;;9.15;3.67;;;23.20;75.30;;;;;;5067830;28;20084;-90
2021/06/13 13:16:33;;;;;;;7.55;3.40;;;23.40;77.40;;;;;;5067887;28;20037;-90
2021/06/13 13:19:02;;;;;;;7.55;3.38;;;23.40;75.10;;;;;;5051416;28;20124;-90
2021/06/13 13:21:31;;;;;;;7.47;3.25;;;23.50;75.30;;;;;;5052642;28;20072;-92
2021/06/13 13:24:00;;;;;;;7.30;3.20;;;23.20;75.00;;;;;;5067267;28;20117;-92
2021/06/13 13:26:27;;;;;;;7.05;3.33;;;23.10;74.90;;;;;;5067564;28;20493;-96
2021/06/13 13:28:58;;;;;;;9.05;3.50;;;23.10;74.90;;;;;;5051387;28;20105;-91